Khoun Khan Airport

VTSA · Satun, 泰国

使用的METAR站距离机场46 km。
罗盘
风向 的 风向 240° Khoun Khan Airport 17/35
风: 3 kt, 1 beaufort

1 kt

3 kt
改变
0 ft 2.000 4.000 6.000 8.000 10.000
Cloud Cloud
FEW 2.000
Cloud Cloud Cloud Cloud Cloud Cloud
BKN 10.000
METAR VTSS 172200Z 24003KT 7000 FEW020 BKN100 25/25 Q1007 NOSIG

METAR Khoun Khan Airport - VTSA

Khoun Khan Airport是,泰国中的小机场。 该机场位于纬度6,66161和经度100,08021。 该机场有一条跑道: 17/35. 本场的ICAO机场代码为VTSA。 机场在Bangkok FIR中。

该航空气象观测是针对Hat Yai International Airport在2024年7月18日 05:00, 当地时间进行的。

机场观察

风向为240°,速度为3 kt。

可见度为7 km。

有几云在2.000 ft的高度 和 碎云在10.000 ft的高度。 破损或更高的上限为10.000 ft。

温度和风寒是25 °C。 露点为25 °C,相对湿度为100%。 海平面上的气压为1007 hPa (QNH)。

白天

今天,太阳从06:11升起,在18:39降落。 这适用于Khoun Khan Airport,世界夏令时可能有所不同。 当地时间与世界标准时间之间的时差为+7 小时。 夏令时目前正在进行中。

公司介绍

我们没有关于这个机场的公司信息。

体会

到Vliegles.nl去找飞行课程,跳伞和其他飞行体验。 浏览页面,了解Khoun Khan Airport附近所有可用的活动。 你也可以使用搜索功能来寻找你所在地附近的特定飞行课程、跳伞或其他飞行体验。

跑道

Id 标题 侧风 逆风 侧风 %
17/35 174°-354° 3 kt 1 kt 91 %

逆风成分最大的方向会被突出显示,并用于横风计算。 这并不一定意味着这个方向在使用。

乌云

2.000 ft FEW 几云
10.000 ft BKN 碎云

温度 & 天气

温度 25 °C
露点 25 °C
相对湿度 100%
Kp-index 0 (0-9)

白天

日出
06:10 (1:01)
中午
12:24
日落
18:39

小工具

你想在你的网站上有一个关于Khoun Khan Airport的当前航空天气(METAR)的小部件吗?

显示HTML代码
报告变更